Time;durP1;ratioP1;P1;durP2;ratioP2;P2;SDS_P1;SDS_P2;PMS_P1;PMS_P2;Temp;Humidity;BMP_temperature;BMP_pressure;BME280_temperature;BME280_humidity;BME280_pressure;Samples;Min_cycle;Max_cycle;Signal;HPM_P1;HPM_P2
2021/08/08 00:00:56;;;;;;;1.97;1.87;;;16.60;99.90;;;;;;5076450;28;20232;-64
2021/08/08 00:03:21;;;;;;;2.13;1.93;;;16.60;99.90;;;;;;5075813;28;20289;-63
2021/08/08 00:05:47;;;;;;;3.53;2.20;;;16.80;99.90;;;;;;5076120;28;20185;-65
2021/08/08 00:08:13;;;;;;;2.40;2.20;;;16.70;99.90;;;;;;5078518;28;20696;-64
2021/08/08 00:10:39;;;;;;;2.10;1.90;;;16.80;99.90;;;;;;5074893;28;20658;-59
2021/08/08 00:13:05;;;;;;;2.57;1.97;;;16.70;99.90;;;;;;5076304;28;20294;-58
2021/08/08 00:15:32;;;;;;;1.90;1.80;;;16.70;99.90;;;;;;5075749;28;20285;-55
2021/08/08 00:17:58;;;;;;;1.70;1.60;;;16.70;99.90;;;;;;5076010;28;20175;-56
2021/08/08 00:20:23;;;;;;;2.23;2.00;;;16.80;99.90;;;;;;5070076;28;20171;-65
2021/08/08 00:22:49;;;;;;;1.60;1.50;;;16.70;99.90;;;;;;5071349;28;20574;-64
2021/08/08 00:25:15;;;;;;;1.90;1.80;;;16.60;99.90;;;;;;5093921;28;20170;-64
2021/08/08 00:27:40;;;;;;;1.90;1.80;;;16.60;99.90;;;;;;5087059;28;20178;-64
2021/08/08 00:30:08;;;;;;;1.93;1.60;;;16.70;99.90;;;;;;5077927;28;20648;-64
2021/08/08 00:32:33;;;;;;;2.00;1.57;;;16.80;99.90;;;;;;5072697;28;20201;-65
2021/08/08 00:34:59;;;;;;;2.03;1.87;;;16.70;99.90;;;;;;5076602;28;20166;-55
2021/08/08 00:37:25;;;;;;;1.80;1.70;;;16.70;99.90;;;;;;5077525;28;20258;-63
2021/08/08 00:39:51;;;;;;;2.43;1.60;;;16.70;99.90;;;;;;5088346;28;20231;-64
2021/08/08 00:42:16;;;;;;;1.50;1.40;;;16.80;99.90;;;;;;5100064;28;20174;-65
2021/08/08 00:44:42;;;;;;;2.33;1.70;;;17.00;99.90;;;;;;5072720;28;20255;-64
2021/08/08 00:47:07;;;;;;;1.30;1.30;;;16.90;99.90;;;;;;5085054;28;20201;-57
2021/08/08 00:49:33;;;;;;;1.50;1.40;;;16.90;99.90;;;;;;5075142;28;20194;-64
2021/08/08 00:51:59;;;;;;;1.50;1.40;;;16.80;99.90;;;;;;5074763;28;20650;-64
2021/08/08 00:54:25;;;;;;;1.57;1.30;;;16.90;99.90;;;;;;5074920;28;20277;-64
2021/08/08 00:56:50;;;;;;;3.23;1.30;;;16.80;99.90;;;;;;5074728;28;20206;-65
2021/08/08 00:59:16;;;;;;;2.17;1.70;;;16.70;99.90;;;;;;5074920;28;20186;-57
2021/08/08 01:01:49;;;;;;;1.90;1.47;;;16.50;99.90;;;;;;5074891;28;20202;-57
2021/08/08 01:04:20;;;;;;;1.60;1.50;;;16.50;99.90;;;;;;5075157;28;20190;-60
2021/08/08 01:06:58;;;;;;;1.33;1.27;;;16.40;99.90;;;;;;5074959;28;20183;-64
2021/08/08 01:09:26;;;;;;;1.60;1.50;;;16.30;99.90;;;;;;5074523;28;20206;-65
2021/08/08 01:11:52;;;;;;;1.63;1.53;;;16.40;99.90;;;;;;5074629;28;20178;-58
2021/08/08 01:14:19;;;;;;;1.93;1.73;;;16.20;99.90;;;;;;5075056;28;20186;-65
2021/08/08 01:16:46;;;;;;;3.00;1.30;;;16.10;99.90;;;;;;5074943;28;20202;-55
2021/08/08 01:19:16;;;;;;;1.47;1.37;;;16.10;99.90;;;;;;5075184;28;20159;-64
2021/08/08 01:21:45;;;;;;;1.87;1.70;;;16.20;99.90;;;;;;5074534;28;20172;-65
2021/08/08 01:24:11;;;;;;;1.53;1.43;;;16.20;99.90;;;;;;5074133;28;20217;-56
2021/08/08 01:26:39;;;;;;;2.63;1.70;;;16.40;99.90;;;;;;5074732;28;20171;-64
2021/08/08 01:29:06;;;;;;;1.83;1.73;;;16.40;99.90;;;;;;5074497;28;20236;-64
2021/08/08 01:31:32;;;;;;;1.73;1.63;;;16.40;99.90;;;;;;5074162;28;20192;-56
2021/08/08 01:33:57;;;;;;;1.87;1.77;;;16.40;99.90;;;;;;5074786;28;20277;-64
2021/08/08 01:36:23;;;;;;;1.97;1.80;;;16.40;99.90;;;;;;5074229;28;20662;-65
2021/08/08 01:39:00;;;;;;;1.40;1.30;;;16.40;99.90;;;;;;5074366;28;20167;-64
2021/08/08 01:41:29;;;;;;;1.70;1.60;;;16.40;99.90;;;;;;5053987;28;20194;-63
2021/08/08 01:43:56;;;;;;;1.73;1.63;;;16.40;99.90;;;;;;5054662;28;20191;-64
2021/08/08 01:46:25;;;;;;;1.43;1.33;;;16.30;99.90;;;;;;5054173;28;20643;-65
2021/08/08 01:48:53;;;;;;;1.80;1.70;;;16.30;99.90;;;;;;5054431;28;20176;-63
2021/08/08 01:51:20;;;;;;;1.90;1.70;;;16.30;99.90;;;;;;5053966;28;20639;-57
2021/08/08 01:53:46;;;;;;;1.70;1.60;;;16.30;99.90;;;;;;5053951;28;20198;-57
2021/08/08 01:56:12;;;;;;;2.63;1.60;;;16.30;99.90;;;;;;5054207;28;20195;-65
2021/08/08 01:58:38;;;;;;;2.80;1.40;;;16.30;99.90;;;;;;5053876;28;20183;-64
2021/08/08 02:01:04;;;;;;;2.17;1.80;;;16.30;99.90;;;;;;5054492;28;20240;-64
2021/08/08 02:03:37;;;;;;;1.20;1.20;;;16.50;99.90;;;;;;5053527;28;20206;-58
2021/08/08 02:06:05;;;;;;;1.50;1.37;;;16.60;99.90;;;;;;5053794;28;20254;-57
2021/08/08 02:08:31;;;;;;;2.60;1.80;;;16.70;99.90;;;;;;5053705;28;20662;-59
2021/08/08 02:10:57;;;;;;;1.57;1.23;;;16.80;99.90;;;;;;5053736;28;20309;-59
2021/08/08 02:13:22;;;;;;;1.53;1.20;;;16.90;99.90;;;;;;5053671;28;20195;-65
2021/08/08 02:15:48;;;;;;;1.53;1.40;;;17.00;99.90;;;;;;5053593;28;20244;-56
2021/08/08 02:18:14;;;;;;;2.60;1.40;;;17.20;99.90;;;;;;5053830;28;20213;-60
2021/08/08 02:20:40;;;;;;;3.60;1.37;;;17.20;99.90;;;;;;5053762;28;20201;-56
2021/08/08 02:23:05;;;;;;;1.50;1.33;;;17.10;99.90;;;;;;5053616;28;20194;-65
2021/08/08 02:25:31;;;;;;;1.80;1.60;;;17.10;99.90;;;;;;5053686;28;20179;-64
2021/08/08 02:27:56;;;;;;;1.30;1.20;;;17.00;99.90;;;;;;5053593;28;20182;-65
2021/08/08 02:30:23;;;;;;;2.60;1.80;;;16.80;99.90;;;;;;5053722;28;20643;-55
2021/08/08 02:32:48;;;;;;;1.27;1.17;;;16.70;99.90;;;;;;5053368;28;20300;-65
2021/08/08 02:35:14;;;;;;;1.53;1.30;;;16.60;99.90;;;;;;5054280;28;20250;-58
2021/08/08 02:37:39;;;;;;;1.70;1.60;;;16.60;99.90;;;;;;5053595;28;20171;-55
2021/08/08 02:40:06;;;;;;;3.47;1.60;;;16.70;99.90;;;;;;5054108;28;20183;-64
2021/08/08 02:42:32;;;;;;;3.23;1.43;;;16.60;99.90;;;;;;5053207;28;20175;-63
2021/08/08 02:44:58;;;;;;;3.47;1.43;;;16.40;99.90;;;;;;5053225;28;20209;-64
2021/08/08 02:47:24;;;;;;;1.40;1.30;;;16.40;99.90;;;;;;5053575;28;20505;-64
2021/08/08 02:49:49;;;;;;;1.97;1.40;;;16.40;99.90;;;;;;5053726;28;20175;-53
2021/08/08 02:52:15;;;;;;;2.40;1.20;;;16.30;99.90;;;;;;5053494;28;20313;-65
2021/08/08 02:54:41;;;;;;;1.30;1.20;;;16.30;99.90;;;;;;5053344;28;20282;-65
2021/08/08 02:57:06;;;;;;;4.40;1.20;;;16.20;99.90;;;;;;5053419;28;20280;-54
2021/08/08 02:59:33;;;;;;;2.73;1.20;;;16.20;99.90;;;;;;5053573;28;20183;-56
2021/08/08 03:01:59;;;;;;;3.90;1.43;;;16.10;99.90;;;;;;5053927;28;20175;-64
2021/08/08 03:04:25;;;;;;;1.63;1.37;;;16.10;99.90;;;;;;5053474;28;20195;-64
2021/08/08 03:06:50;;;;;;;1.37;1.27;;;16.10;99.90;;;;;;5053289;28;20167;-53
2021/08/08 03:09:16;;;;;;;1.20;1.10;;;16.20;99.90;;;;;;5053382;28;20187;-54
2021/08/08 03:11:48;;;;;;;1.43;1.33;;;16.30;99.90;;;;;;5053294;28;20216;-56
2021/08/08 03:14:15;;;;;;;3.30;1.33;;;16.40;99.90;;;;;;5053894;28;20252;-65
2021/08/08 03:16:42;;;;;;;1.93;1.50;;;16.50;99.90;;;;;;5056171;28;20682;-53
2021/08/08 03:19:08;;;;;;;3.17;1.20;;;16.50;99.90;;;;;;5057051;28;20186;-58
2021/08/08 03:21:33;;;;;;;3.90;1.20;;;16.50;99.90;;;;;;5056713;28;20565;-64
2021/08/08 03:23:59;;;;;;;1.53;1.20;;;16.50;99.90;;;;;;5056894;28;20194;-64
2021/08/08 03:26:24;;;;;;;2.80;1.33;;;16.50;99.90;;;;;;5056909;28;20175;-56
2021/08/08 03:28:50;;;;;;;2.93;1.30;;;16.40;99.90;;;;;;5057434;28;20171;-62
2021/08/08 03:31:17;;;;;;;1.97;1.40;;;16.40;99.90;;;;;;5056282;28;20708;-58
2021/08/08 03:33:43;;;;;;;1.20;1.03;;;16.50;99.90;;;;;;5056789;28;20191;-60
2021/08/08 03:36:11;;;;;;;1.80;1.43;;;16.50;99.90;;;;;;5072278;28;20202;-64
2021/08/08 03:38:36;;;;;;;2.50;1.47;;;16.50;99.90;;;;;;5056623;28;20186;-65
2021/08/08 03:41:02;;;;;;;2.30;1.50;;;16.40;99.90;;;;;;5057007;28;20184;-65
2021/08/08 03:43:27;;;;;;;2.43;1.27;;;16.40;99.90;;;;;;5056214;28;20208;-65
2021/08/08 03:45:53;;;;;;;2.70;1.20;;;16.30;99.90;;;;;;5056556;28;20179;-64
2021/08/08 03:48:18;;;;;;;1.27;1.00;;;16.20;99.90;;;;;;5056441;28;20181;-65
2021/08/08 03:50:44;;;;;;;2.27;1.27;;;16.30;99.90;;;;;;5056750;28;20197;-58
2021/08/08 03:53:09;;;;;;;1.40;1.10;;;16.30;99.90;;;;;;5055896;28;20223;-60
2021/08/08 03:55:35;;;;;;;1.00;1.00;;;16.20;99.90;;;;;;5056808;28;20202;-65
2021/08/08 03:58:00;;;;;;;2.63;1.40;;;16.20;99.90;;;;;;5056544;28;20562;-64
2021/08/08 04:00:26;;;;;;;1.40;1.20;;;16.10;99.90;;;;;;5056921;28;20176;-65
2021/08/08 04:02:52;;;;;;;2.13;1.27;;;16.10;99.90;;;;;;5056227;28;20202;-55
2021/08/08 04:05:17;;;;;;;2.73;1.10;;;16.20;99.90;;;;;;5056260;28;20532;-65
2021/08/08 04:07:43;;;;;;;1.93;1.03;;;16.40;99.90;;;;;;5056227;28;20206;-64
2021/08/08 04:10:09;;;;;;;1.27;1.00;;;16.50;99.90;;;;;;5056238;28;20280;-59
2021/08/08 04:12:34;;;;;;;1.83;1.17;;;16.50;99.90;;;;;;5055790;28;20639;-65
2021/08/08 04:15:02;;;;;;;1.10;0.80;;;16.60;99.90;;;;;;5055938;28;20187;-57
2021/08/08 04:17:27;;;;;;;1.20;1.10;;;16.60;99.90;;;;;;5055957;28;20274;-53
2021/08/08 04:19:53;;;;;;;2.53;1.17;;;16.60;99.90;;;;;;5055708;28;20774;-53
2021/08/08 04:22:18;;;;;;;2.00;1.07;;;16.60;99.90;;;;;;5055994;28;20171;-65
2021/08/08 04:24:45;;;;;;;2.13;1.20;;;16.70;99.90;;;;;;5055732;28;20613;-63
2021/08/08 04:27:12;;;;;;;1.47;1.30;;;16.70;99.90;;;;;;5055694;28;20255;-65
2021/08/08 04:29:38;;;;;;;1.20;1.10;;;16.70;99.90;;;;;;5055424;28;20167;-54
2021/08/08 04:32:03;;;;;;;2.30;1.40;;;16.90;99.90;;;;;;5055763;28;20168;-65
2021/08/08 04:34:32;;;;;;;1.17;1.00;;;16.90;99.90;;;;;;5055623;28;20532;-55
2021/08/08 04:36:59;;;;;;;1.83;1.03;;;17.00;99.90;;;;;;5055462;28;20651;-56
2021/08/08 04:39:24;;;;;;;1.40;1.30;;;17.10;99.90;;;;;;5055624;28;20186;-59
2021/08/08 04:41:52;;;;;;;2.43;1.53;;;17.00;99.90;;;;;;5055420;28;20278;-65
2021/08/08 04:44:18;;;;;;;6.10;1.60;;;17.10;99.90;;;;;;5055324;28;20199;-60
2021/08/08 04:46:43;;;;;;;1.90;1.80;;;17.10;99.90;;;;;;5055520;28;20560;-56
2021/08/08 04:49:09;;;;;;;3.03;1.20;;;17.00;99.90;;;;;;5055793;28;20633;-65
2021/08/08 04:51:34;;;;;;;1.73;0.90;;;16.90;99.90;;;;;;5054994;28;20286;-56
2021/08/08 04:54:00;;;;;;;1.33;1.17;;;16.70;99.90;;;;;;5055135;28;20199;-55
2021/08/08 04:56:25;;;;;;;1.03;0.93;;;16.60;99.90;;;;;;5055048;28;20555;-56
2021/08/08 04:58:51;;;;;;;2.23;1.50;;;16.60;99.90;;;;;;5055397;28;20175;-56
2021/08/08 05:01:16;;;;;;;1.87;1.60;;;16.60;99.90;;;;;;5054749;28;20202;-57
2021/08/08 05:03:42;;;;;;;3.33;1.30;;;16.50;99.90;;;;;;5055263;28;20278;-56
2021/08/08 05:06:08;;;;;;;1.23;1.03;;;17.20;99.90;;;;;;5055482;28;20175;-53
2021/08/08 05:08:33;;;;;;;1.83;1.17;;;16.90;99.90;;;;;;5054736;28;20187;-64
2021/08/08 05:10:59;;;;;;;1.43;1.07;;;16.50;99.90;;;;;;5055239;28;20329;-65
2021/08/08 05:13:28;;;;;;;1.27;1.10;;;16.50;99.90;;;;;;5054953;28;20269;-53
2021/08/08 05:15:54;;;;;;;1.33;0.97;;;16.50;99.90;;;;;;5055587;28;20235;-65
2021/08/08 05:18:19;;;;;;;2.37;0.90;;;16.50;99.90;;;;;;5054665;28;20247;-64
2021/08/08 05:20:45;;;;;;;4.30;1.00;;;16.50;99.90;;;;;;5055390;28;20621;-59
2021/08/08 05:23:11;;;;;;;1.37;1.13;;;16.60;99.90;;;;;;5054306;28;20670;-64
2021/08/08 05:25:36;;;;;;;1.53;1.20;;;16.60;99.90;;;;;;5055353;28;20565;-57
2021/08/08 05:28:02;;;;;;;1.23;1.10;;;16.60;99.90;;;;;;5055068;28;20199;-55
2021/08/08 05:30:27;;;;;;;1.07;0.97;;;16.60;99.90;;;;;;5054794;28;20247;-56
2021/08/08 05:32:53;;;;;;;1.33;0.90;;;16.60;99.90;;;;;;5054695;28;20524;-64
2021/08/08 05:35:18;;;;;;;1.50;1.07;;;16.60;99.90;;;;;;5054354;28;20183;-66
2021/08/08 05:37:44;;;;;;;1.30;1.20;;;16.70;99.90;;;;;;5054450;28;20233;-62
2021/08/08 05:40:11;;;;;;;1.20;1.10;;;16.70;99.90;;;;;;5053149;28;20192;-65
2021/08/08 05:42:37;;;;;;;1.00;0.90;;;16.70;99.90;;;;;;5054109;28;20202;-57
2021/08/08 05:45:04;;;;;;;2.60;1.07;;;16.70;99.90;;;;;;5054455;28;20616;-66
2021/08/08 05:47:30;;;;;;;1.90;1.00;;;16.70;99.90;;;;;;5054558;28;20172;-57
2021/08/08 05:49:56;;;;;;;1.33;1.10;;;16.70;99.90;;;;;;5053947;28;20194;-64
2021/08/08 05:52:22;;;;;;;0.80;0.80;;;16.60;99.90;;;;;;5054365;28;20232;-60
2021/08/08 05:54:47;;;;;;;1.87;0.90;;;16.70;99.90;;;;;;5054076;28;20555;-59
2021/08/08 05:57:13;;;;;;;2.63;1.27;;;17.40;99.90;;;;;;5054650;28;20195;-65
2021/08/08 05:59:38;;;;;;;1.73;1.00;;;16.80;99.90;;;;;;5054032;28;20280;-66
2021/08/08 06:02:04;;;;;;;2.27;0.90;;;16.80;99.90;;;;;;5054212;28;20266;-57
2021/08/08 06:04:29;;;;;;;1.90;1.07;;;16.90;99.90;;;;;;5053869;28;20202;-64
2021/08/08 06:06:55;;;;;;;1.23;1.10;;;16.90;99.90;;;;;;5054189;28;20183;-66
2021/08/08 06:09:21;;;;;;;1.03;0.97;;;16.90;99.90;;;;;;5074831;28;20186;-55
2021/08/08 06:11:46;;;;;;;0.93;0.90;;;16.90;99.90;;;;;;5088175;28;20201;-64
2021/08/08 06:14:12;;;;;;;1.20;1.07;;;16.90;99.90;;;;;;5079992;28;20274;-58
2021/08/08 06:16:37;;;;;;;1.73;1.20;;;16.90;99.90;;;;;;5070290;28;20198;-64
2021/08/08 06:19:03;;;;;;;2.30;1.07;;;17.00;99.90;;;;;;5067801;28;20203;-64
2021/08/08 06:21:29;;;;;;;2.43;1.07;;;16.90;99.90;;;;;;5067492;28;20187;-66
2021/08/08 06:23:54;;;;;;;1.13;0.90;;;16.90;99.90;;;;;;5062490;28;20203;-66
2021/08/08 06:26:20;;;;;;;1.47;1.13;;;17.00;99.90;;;;;;5088352;28;20614;-60
2021/08/08 06:28:45;;;;;;;1.73;1.00;;;17.10;99.90;;;;;;5082178;28;20618;-64
2021/08/08 06:31:11;;;;;;;1.00;0.87;;;17.10;99.90;;;;;;5081191;28;20190;-60
2021/08/08 06:33:36;;;;;;;1.70;0.87;;;17.10;99.90;;;;;;5089272;28;20539;-64
2021/08/08 06:36:02;;;;;;;1.20;0.97;;;17.10;99.90;;;;;;5076900;28;20260;-66
2021/08/08 06:38:27;;;;;;;1.47;0.80;;;17.20;99.90;;;;;;5087256;28;20176;-65
2021/08/08 06:40:53;;;;;;;1.23;1.00;;;17.30;99.90;;;;;;5073521;28;20179;-65
2021/08/08 06:43:18;;;;;;;1.03;0.90;;;17.30;99.90;;;;;;5071541;28;20544;-61
2021/08/08 06:45:44;;;;;;;0.90;0.90;;;17.20;99.90;;;;;;5072729;28;20468;-57
2021/08/08 06:48:09;;;;;;;0.80;0.80;;;17.30;99.90;;;;;;5072712;28;20183;-67
2021/08/08 06:50:35;;;;;;;1.20;1.10;;;17.20;99.90;;;;;;5073712;28;20514;-55
2021/08/08 06:53:01;;;;;;;1.43;1.00;;;17.20;99.90;;;;;;5077339;28;20214;-64
2021/08/08 06:55:27;;;;;;;1.10;1.00;;;17.40;99.90;;;;;;5074013;28;20227;-65
2021/08/08 06:57:52;;;;;;;1.57;0.80;;;17.60;99.90;;;;;;5062723;28;20539;-60
2021/08/08 07:00:18;;;;;;;1.00;1.00;;;17.80;99.90;;;;;;5077540;28;20189;-62
2021/08/08 07:02:45;;;;;;;3.60;0.83;;;17.80;99.90;;;;;;5077194;28;20229;-56
2021/08/08 07:05:11;;;;;;;1.10;1.00;;;18.00;99.90;;;;;;5061726;28;20186;-56
2021/08/08 07:07:37;;;;;;;1.23;1.00;;;18.00;99.90;;;;;;5058758;28;20176;-65
2021/08/08 07:10:04;;;;;;;1.00;0.93;;;18.20;99.90;;;;;;5076768;28;20199;-60
2021/08/08 07:12:30;;;;;;;1.87;0.77;;;18.30;99.90;;;;;;5077126;28;20178;-65
2021/08/08 07:14:56;;;;;;;1.00;0.80;;;18.40;99.90;;;;;;5076501;28;20182;-57
2021/08/08 07:17:21;;;;;;;1.47;0.90;;;19.10;99.90;;;;;;5077250;28;20209;-60
2021/08/08 07:19:47;;;;;;;2.87;1.00;;;18.20;99.90;;;;;;5077260;28;20254;-62
2021/08/08 07:22:12;;;;;;;1.50;1.03;;;18.20;99.90;;;;;;5076055;28;20199;-54
2021/08/08 07:24:38;;;;;;;4.20;1.50;;;18.30;99.90;;;;;;5076249;28;20230;-65
2021/08/08 07:27:04;;;;;;;1.13;0.90;;;18.50;99.90;;;;;;5076481;28;20183;-58
2021/08/08 07:29:29;;;;;;;1.10;1.00;;;18.50;99.90;;;;;;5076807;28;20175;-64
2021/08/08 07:31:55;;;;;;;1.60;1.00;;;18.50;99.90;;;;;;5076370;28;20183;-65
2021/08/08 07:34:21;;;;;;;1.67;1.57;;;18.50;99.90;;;;;;5075730;28;20214;-65
2021/08/08 07:36:47;;;;;;;1.00;1.00;;;18.40;99.90;;;;;;5075102;28;20195;-59
2021/08/08 07:39:13;;;;;;;2.13;1.50;;;18.40;99.90;;;;;;5076456;28;20178;-65
2021/08/08 07:41:38;;;;;;;1.50;1.40;;;18.50;99.90;;;;;;5076851;28;20602;-60
2021/08/08 07:44:04;;;;;;;1.80;1.37;;;18.50;99.90;;;;;;5076455;28;20588;-61
2021/08/08 07:46:30;;;;;;;1.80;1.50;;;18.60;99.90;;;;;;5076534;28;20639;-60
2021/08/08 07:48:56;;;;;;;1.77;1.30;;;18.60;99.90;;;;;;5076422;28;20178;-66
2021/08/08 07:51:21;;;;;;;1.00;1.00;;;18.70;99.90;;;;;;5076222;28;20178;-66
2021/08/08 07:53:47;;;;;;;1.57;1.10;;;18.80;99.90;;;;;;5059777;28;20207;-64
2021/08/08 07:56:12;;;;;;;1.83;1.27;;;18.90;99.90;;;;;;5056574;28;20218;-60
2021/08/08 07:58:38;;;;;;;1.10;1.00;;;18.80;99.90;;;;;;5056787;28;20174;-65
2021/08/08 08:01:04;;;;;;;1.37;1.00;;;18.90;99.90;;;;;;5055837;28;20203;-66
2021/08/08 08:03:30;;;;;;;2.30;1.10;;;18.90;99.90;;;;;;5055283;28;20528;-59
2021/08/08 08:05:56;;;;;;;0.90;0.90;;;19.10;99.90;;;;;;5055881;28;20167;-66
2021/08/08 08:08:22;;;;;;;2.50;1.00;;;19.10;99.90;;;;;;5056056;28;20191;-66
2021/08/08 08:10:48;;;;;;;1.23;0.93;;;19.10;99.90;;;;;;5056439;28;20229;-60
2021/08/08 08:13:13;;;;;;;0.80;0.80;;;19.10;99.90;;;;;;5055831;28;20253;-59
2021/08/08 08:15:39;;;;;;;1.10;0.80;;;19.20;99.90;;;;;;5055580;28;20293;-62
2021/08/08 08:18:05;;;;;;;0.90;0.90;;;19.30;99.90;;;;;;5056125;28;20176;-60
2021/08/08 08:20:30;;;;;;;3.00;0.97;;;19.30;99.90;;;;;;5055832;28;20176;-65
2021/08/08 08:22:56;;;;;;;0.87;0.67;;;19.60;99.90;;;;;;5055646;28;20202;-61
2021/08/08 08:25:22;;;;;;;0.60;0.60;;;19.80;99.90;;;;;;5055809;28;20167;-67
2021/08/08 08:27:50;;;;;;;0.80;0.80;;;20.00;99.90;;;;;;5056498;28;20249;-60
2021/08/08 08:30:16;;;;;;;0.63;0.60;;;20.00;99.90;;;;;;5055756;28;20628;-66
2021/08/08 08:32:42;;;;;;;0.80;0.70;;;20.00;99.90;;;;;;5067287;28;20203;-65
2021/08/08 08:35:09;;;;;;;2.53;0.80;;;20.10;99.90;;;;;;5076344;28;20185;-66
2021/08/08 08:37:35;;;;;;;0.97;0.87;;;20.20;99.90;;;;;;5074129;28;20616;-66
2021/08/08 08:40:03;;;;;;;1.80;0.60;;;20.50;99.90;;;;;;5074790;28;20627;-65
2021/08/08 08:42:30;;;;;;;0.90;0.60;;;20.70;99.90;;;;;;5074040;28;20559;-66
2021/08/08 08:44:56;;;;;;;0.87;0.67;;;20.70;99.90;;;;;;5074825;28;20177;-59
2021/08/08 08:47:23;;;;;;;1.08;0.77;;;20.80;99.90;;;;;;5074583;28;20177;-65
2021/08/08 08:49:54;;;;;;;1.88;0.80;;;20.90;99.90;;;;;;5074609;28;20237;-56
2021/08/08 08:52:25;;;;;;;1.65;0.93;;;21.10;99.90;;;;;;5073798;28;20220;-61
2021/08/08 08:54:52;;;;;;;0.73;0.68;;;21.00;99.90;;;;;;5074869;28;20652;-66
2021/08/08 08:57:18;;;;;;;1.17;0.85;;;20.90;99.90;;;;;;5075786;28;20210;-66
2021/08/08 08:59:46;;;;;;;3.22;0.75;;;20.90;99.90;;;;;;5074652;28;20526;-63
2021/08/08 09:02:13;;;;;;;0.80;0.70;;;21.10;99.90;;;;;;5074811;28;20653;-58
2021/08/08 09:04:38;;;;;;;1.13;1.00;;;21.10;99.90;;;;;;5074912;28;20203;-65
2021/08/08 09:07:04;;;;;;;3.03;0.88;;;21.30;99.90;;;;;;5075307;28;20188;-65
2021/08/08 09:09:34;;;;;;;0.85;0.82;;;21.70;99.90;;;;;;5074542;28;20675;-61
2021/08/08 09:12:00;;;;;;;1.20;1.10;;;22.00;99.90;;;;;;5074815;28;20236;-66
2021/08/08 09:14:26;;;;;;;1.10;1.02;;;22.00;99.90;;;;;;5074584;28;20585;-65
2021/08/08 09:16:53;;;;;;;0.73;0.73;;;22.10;99.90;;;;;;5075470;28;20634;-66
2021/08/08 09:19:25;;;;;;;1.42;0.95;;;21.40;99.90;;;;;;5074467;28;20202;-59
2021/08/08 09:21:52;;;;;;;1.20;1.00;;;21.30;99.90;;;;;;5075002;28;20255;-66
2021/08/08 09:24:29;;;;;;;1.55;0.90;;;21.20;99.90;;;;;;5074631;28;20618;-64
2021/08/08 09:27:10;;;;;;;0.70;0.70;;;21.00;99.90;;;;;;5075277;28;20187;-66
2021/08/08 09:29:37;;;;;;;0.80;0.80;;;21.30;99.90;;;;;;5075083;28;20189;-66
2021/08/08 09:32:03;;;;;;;1.55;0.95;;;21.60;99.90;;;;;;5074105;28;20248;-61
2021/08/08 09:34:38;;;;;;;1.10;0.80;;;21.80;99.90;;;;;;5074480;28;20698;-66
2021/08/08 09:37:22;;;;;;;0.80;0.80;;;22.20;99.90;;;;;;5074495;28;20202;-57
2021/08/08 09:39:52;;;;;;;0.98;0.88;;;22.30;99.90;;;;;;5074347;28;20157;-61
2021/08/08 09:42:29;;;;;;;0.85;0.80;;;22.40;99.90;;;;;;5073759;28;20183;-66
2021/08/08 09:44:57;;;;;;;0.82;0.82;;;22.00;99.90;;;;;;5074643;28;20181;-65
2021/08/08 09:47:43;;;;;;;0.73;0.73;;;22.00;99.90;;;;;;5074570;28;20187;-66
2021/08/08 09:50:15;;;;;;;0.65;0.65;;;22.00;99.90;;;;;;5074289;28;20642;-61
2021/08/08 09:52:49;;;;;;;0.77;0.65;;;22.10;99.90;;;;;;5073754;28;20256;-65
2021/08/08 09:55:18;;;;;;;0.70;0.70;;;22.50;99.90;;;;;;5074076;28;20244;-62
2021/08/08 09:57:43;;;;;;;0.70;0.70;;;22.80;99.90;;;;;;5074160;28;20175;-65
2021/08/08 10:00:20;;;;;;;1.33;0.85;;;23.00;99.90;;;;;;5074428;28;20186;-57
2021/08/08 10:02:46;;;;;;;1.20;0.80;;;23.10;99.90;;;;;;5073953;28;20249;-58
2021/08/08 10:05:11;;;;;;;1.50;0.80;;;23.30;99.90;;;;;;5074617;28;20547;-66
2021/08/08 10:07:37;;;;;;;1.15;0.70;;;23.50;99.90;;;;;;5074375;28;20188;-66
2021/08/08 10:10:02;;;;;;;0.60;0.60;;;23.80;99.90;;;;;;5073588;28;20232;-58
2021/08/08 10:12:42;;;;;;;2.65;0.80;;;23.90;99.90;;;;;;5073957;28;20232;-64
2021/08/08 10:15:07;;;;;;;2.03;0.70;;;23.80;99.90;;;;;;5074041;28;20166;-61
2021/08/08 10:17:35;;;;;;;0.65;0.57;;;23.40;99.90;;;;;;5074091;28;20250;-66
2021/08/08 10:20:02;;;;;;;1.77;0.82;;;23.10;99.90;;;;;;5074208;28;20174;-65
2021/08/08 10:22:30;;;;;;;1.10;0.98;;;23.00;99.90;;;;;;5073504;28;20166;-63
2021/08/08 10:24:58;;;;;;;1.20;1.00;;;23.10;99.90;;;;;;5073603;28;20501;-65
2021/08/08 10:27:25;;;;;;;1.10;1.00;;;23.00;99.90;;;;;;5073785;28;20210;-65
2021/08/08 10:29:52;;;;;;;2.20;0.93;;;22.90;99.90;;;;;;5073803;28;20556;-57
2021/08/08 10:32:27;;;;;;;1.20;1.10;;;22.60;99.90;;;;;;5073948;28;20167;-65
2021/08/08 10:34:53;;;;;;;1.10;1.00;;;22.40;99.90;;;;;;5074567;28;20274;-61
2021/08/08 10:37:25;;;;;;;1.30;1.20;;;22.20;99.90;;;;;;5073752;28;20195;-62
2021/08/08 10:39:52;;;;;;;1.20;1.10;;;22.20;99.90;;;;;;5073528;28;20151;-59
2021/08/08 10:42:19;;;;;;;1.27;1.17;;;22.20;99.90;;;;;;5073443;28;20171;-65
2021/08/08 10:44:52;;;;;;;1.00;0.90;;;22.00;99.90;;;;;;5074467;28;20205;-65
2021/08/08 10:47:28;;;;;;;1.70;1.13;;;21.90;99.90;;;;;;5073624;28;20239;-65
2021/08/08 10:50:06;;;;;;;2.42;1.30;;;21.70;99.90;;;;;;5073665;28;20200;-60
2021/08/08 10:52:44;;;;;;;1.25;0.93;;;21.30;99.90;;;;;;5074118;28;20160;-58
2021/08/08 10:55:27;;;;;;;1.77;1.02;;;21.00;99.90;;;;;;5073548;28;20253;-59
2021/08/08 10:57:53;;;;;;;5.95;1.48;;;21.00;99.90;;;;;;5073532;28;20623;-62
2021/08/08 11:00:19;;;;;;;1.20;1.10;;;20.90;99.90;;;;;;5073317;28;20265;-65
2021/08/08 11:02:45;;;;;;;0.95;0.90;;;20.80;99.90;;;;;;5071866;28;20181;-61
2021/08/08 11:05:15;;;;;;;1.03;0.90;;;20.80;99.90;;;;;;5073470;28;20163;-65
2021/08/08 11:07:43;;;;;;;2.77;1.10;;;20.90;99.90;;;;;;5074030;28;20563;-66
2021/08/08 11:10:10;;;;;;;0.70;0.70;;;20.90;99.90;;;;;;5073882;28;20193;-66
2021/08/08 11:12:38;;;;;;;1.52;0.82;;;21.00;99.90;;;;;;5073366;28;20171;-65
2021/08/08 11:15:05;;;;;;;1.03;0.87;;;20.90;99.90;;;;;;5073635;28;20167;-60
2021/08/08 11:17:31;;;;;;;1.10;0.90;;;20.80;99.90;;;;;;5073724;28;20237;-65
2021/08/08 11:19:57;;;;;;;1.10;0.80;;;20.80;99.90;;;;;;5073742;28;20171;-61
2021/08/08 11:22:23;;;;;;;0.60;0.60;;;20.80;99.90;;;;;;5072357;28;20171;-55
2021/08/08 11:25:04;;;;;;;0.80;0.60;;;20.60;99.90;;;;;;5073282;28;20197;-63
2021/08/08 11:27:32;;;;;;;0.90;0.70;;;20.60;99.90;;;;;;5074802;28;20163;-58
2021/08/08 11:29:57;;;;;;;0.80;0.60;;;20.40;99.90;;;;;;5073231;28;20187;-66
2021/08/08 11:32:32;;;;;;;1.03;0.77;;;20.40;99.90;;;;;;5073548;28;20186;-60
2021/08/08 11:35:01;;;;;;;0.77;0.67;;;20.30;99.90;;;;;;5073168;28;20299;-55
2021/08/08 11:37:35;;;;;;;0.70;0.70;;;20.00;99.90;;;;;;5075790;28;20200;-55
2021/08/08 11:40:01;;;;;;;1.07;0.60;;;19.80;99.90;;;;;;5076849;28;20225;-57
2021/08/08 11:42:31;;;;;;;1.03;0.83;;;19.70;99.90;;;;;;5076288;28;20669;-64
2021/08/08 11:44:58;;;;;;;0.60;0.57;;;19.50;99.90;;;;;;5078070;28;20201;-65
2021/08/08 11:47:26;;;;;;;1.17;0.73;;;19.60;99.90;;;;;;5077097;28;20227;-59
2021/08/08 11:49:52;;;;;;;1.20;0.60;;;19.70;99.90;;;;;;5076754;28;20257;-65
2021/08/08 11:52:19;;;;;;;2.87;0.73;;;19.60;99.90;;;;;;5076484;28;20170;-59
2021/08/08 11:54:47;;;;;;;0.60;0.60;;;19.50;99.90;;;;;;5076272;28;20204;-64
2021/08/08 11:57:25;;;;;;;0.63;0.63;;;19.30;99.90;;;;;;5077351;28;20335;-59
2021/08/08 11:59:51;;;;;;;0.87;0.63;;;19.20;99.90;;;;;;5076090;28;20186;-56
2021/08/08 12:02:17;;;;;;;0.60;0.60;;;19.20;99.90;;;;;;5076360;28;20515;-65
2021/08/08 12:04:43;;;;;;;0.80;0.80;;;19.20;99.90;;;;;;5076097;28;20285;-64
2021/08/08 12:07:10;;;;;;;2.37;0.70;;;19.40;99.90;;;;;;5077206;28;20634;-60
2021/08/08 12:09:36;;;;;;;0.97;0.80;;;19.60;99.90;;;;;;5075494;28;20677;-65
2021/08/08 12:12:05;;;;;;;0.83;0.60;;;19.90;99.90;;;;;;5075946;28;20179;-66
2021/08/08 12:14:32;;;;;;;3.37;0.67;;;20.30;99.90;;;;;;5075920;28;20229;-60
2021/08/08 12:17:16;;;;;;;0.93;0.63;;;20.20;99.90;;;;;;5076229;28;20695;-63
2021/08/08 12:19:50;;;;;;;0.50;0.40;;;20.20;99.90;;;;;;5075835;28;20539;-65
2021/08/08 12:22:29;;;;;;;2.03;0.80;;;20.30;99.90;;;;;;5075908;28;20162;-65
2021/08/08 12:25:11;;;;;;;1.10;0.68;;;20.30;99.90;;;;;;5076626;28;20193;-62
2021/08/08 12:27:41;;;;;;;0.83;0.73;;;20.20;99.90;;;;;;5056478;28;20313;-65
2021/08/08 12:30:11;;;;;;;1.07;0.60;;;20.10;99.90;;;;;;5055886;28;20191;-66
2021/08/08 12:32:38;;;;;;;0.87;0.60;;;20.20;99.90;;;;;;5055679;28;20600;-66
2021/08/08 12:35:09;;;;;;;2.37;0.80;;;20.30;99.90;;;;;;5056066;28;20697;-65
2021/08/08 12:37:35;;;;;;;0.70;0.50;;;20.50;99.90;;;;;;5055817;28;20252;-65
2021/08/08 12:40:20;;;;;;;0.77;0.77;;;20.80;99.90;;;;;;5055202;28;20172;-54
2021/08/08 12:42:46;;;;;;;0.55;0.55;;;20.90;99.90;;;;;;5055873;28;20240;-65
2021/08/08 12:45:14;;;;;;;0.50;0.50;;;21.10;99.90;;;;;;5055957;28;20260;-62
2021/08/08 12:47:42;;;;;;;0.60;0.60;;;21.40;99.90;;;;;;5055740;28;20665;-59